createdAt,value
2019-06-07T00:04:26.594Z,71.40
2019-06-07T00:09:29.310Z,71.78
2019-06-07T00:14:32.072Z,72.61
2019-06-07T00:19:35.002Z,72.82
2019-06-07T00:24:37.745Z,72.72
2019-06-07T00:29:40.464Z,72.49
2019-06-07T00:34:43.206Z,72.77
2019-06-07T00:39:45.922Z,73.23
2019-06-07T00:44:48.694Z,74.04
2019-06-07T00:49:51.428Z,74.53
2019-06-07T00:54:54.173Z,74.52
2019-06-07T00:59:56.878Z,74.10
2019-06-07T01:04:59.606Z,73.78
2019-06-07T01:10:02.449Z,73.73
2019-06-07T01:15:07.596Z,73.84
2019-06-07T01:20:11.320Z,74.15
2019-06-07T01:25:15.637Z,74.27
2019-06-07T01:30:22.770Z,74.40
2019-06-07T01:35:25.477Z,74.67
2019-06-07T01:40:32.246Z,74.86
2019-06-07T01:45:33.236Z,75.11
2019-06-07T01:50:35.986Z,75.88
2019-06-07T01:55:38.712Z,76.31
2019-06-07T02:00:41.439Z,76.20
2019-06-07T02:05:44.156Z,76.42
2019-06-07T02:10:46.865Z,77.02
2019-06-07T02:15:49.579Z,76.91
2019-06-07T02:20:52.293Z,76.28
2019-06-07T02:25:55.098Z,76.56
2019-06-07T02:31:00.573Z,76.66
2019-06-07T02:36:02.596Z,76.12
2019-06-07T02:41:05.403Z,77.06
2019-06-07T02:46:30.556Z,78.12
2019-06-07T02:51:32.745Z,78.32
2019-06-07T02:56:44.466Z,78.01
2019-06-07T03:01:41.339Z,78.00
2019-06-07T03:06:44.017Z,78.35
2019-06-07T03:11:51.126Z,78.81
2019-06-07T03:17:03.356Z,77.75
2019-06-07T03:22:06.152Z,77.50
2019-06-07T03:27:34.973Z,77.48
2019-06-07T03:32:13.547Z,77.30
2019-06-07T03:37:16.295Z,76.77
2019-06-07T03:42:19.023Z,76.37
2019-06-07T03:47:24.005Z,75.94
2019-06-07T03:52:27.456Z,75.73
2019-06-07T03:57:46.334Z,75.48
2019-06-07T04:02:38.619Z,76.07
2019-06-07T04:07:44.187Z,76.08
2019-06-07T04:12:44.703Z,75.63
2019-06-07T04:18:01.460Z,75.27
2019-06-07T04:22:53.746Z,74.84
2019-06-07T04:27:56.616Z,74.61
2019-06-07T04:32:59.507Z,74.20
2019-06-07T04:38:02.321Z,74.37
2019-06-07T04:43:06.139Z,73.59
2019-06-07T04:48:09.096Z,72.85
2019-06-07T04:53:11.849Z,72.20
2019-06-07T04:58:14.576Z,71.65
2019-06-07T05:03:17.330Z,71.26
2019-06-07T05:08:28.231Z,70.99
2019-06-07T05:13:24.738Z,70.71
2019-06-07T05:18:36.348Z,70.78
2019-06-07T05:24:05.942Z,70.28
2019-06-07T05:28:49.104Z,69.49
2019-06-07T05:34:03.033Z,67.96
2019-06-07T05:39:07.857Z,67.25
2019-06-07T05:44:13.085Z,66.90
2019-06-07T05:49:16.032Z,66.64
2019-06-07T05:54:18.814Z,66.25
2019-06-07T05:59:21.616Z,66.24
2019-06-07T06:04:24.332Z,66.23
2019-06-07T06:09:27.501Z,66.20
2019-06-07T06:14:30.426Z,66.06
2019-06-07T06:19:33.143Z,66.01
2019-06-07T06:24:37.178Z,66.25
2019-06-07T06:29:41.822Z,65.70
2019-06-07T06:34:49.353Z,65.36
2019-06-07T06:39:50.921Z,65.18
2019-06-07T06:44:54.300Z,64.69
2019-06-07T06:49:58.511Z,64.60
2019-06-07T06:55:01.632Z,63.73
2019-06-07T07:00:08.083Z,63.60
2019-06-07T07:05:11.674Z,63.44
2019-06-07T07:10:24.847Z,62.45
2019-06-07T07:15:27.806Z,61.42
2019-06-07T07:20:30.514Z,60.21
2019-06-07T07:25:33.240Z,60.61
2019-06-07T07:30:44.574Z,59.19
2019-06-07T07:36:14.019Z,58.63
2019-06-07T07:41:15.095Z,58.67
2019-06-07T07:46:03.052Z,58.76
2019-06-07T07:51:03.384Z,59.00
2019-06-07T07:56:06.777Z,58.91
2019-06-07T08:01:11.254Z,58.18
2019-06-07T08:06:14.243Z,57.34
2019-06-07T08:11:16.962Z,57.05
2019-06-07T08:16:19.758Z,56.98
2019-06-07T08:21:26.560Z,56.27
2019-06-07T08:26:29.058Z,56.15
2019-06-07T08:31:31.770Z,55.61
2019-06-07T08:36:42.003Z,55.71
2019-06-07T08:41:54.159Z,55.95
2019-06-07T08:46:45.038Z,56.44
2019-06-07T08:51:47.769Z,55.29
2019-06-07T08:56:53.628Z,54.09
2019-06-07T09:01:59.724Z,52.99
2019-06-07T09:07:09.103Z,52.29
2019-06-07T09:12:10.704Z,52.34
2019-06-07T09:17:12.320Z,53.11
2019-06-07T09:22:14.477Z,51.72
2019-06-07T09:27:17.308Z,51.58
2019-06-07T09:32:20.031Z,50.96
2019-06-07T09:38:03.517Z,52.59
2019-06-07T09:42:27.520Z,51.44
2019-06-07T09:47:32.793Z,52.32
2019-06-07T09:52:57.340Z,51.19
2019-06-07T09:57:42.059Z,50.66
2019-06-07T10:02:44.917Z,49.00
2019-06-07T10:08:02.327Z,48.48
2019-06-07T10:12:53.696Z,49.02
2019-06-07T10:17:56.461Z,48.72
2019-06-07T10:22:59.543Z,50.16
2019-06-07T10:28:03.720Z,50.23
2019-06-07T10:33:07.023Z,50.20
2019-06-07T10:38:10.725Z,50.97
2019-06-07T10:43:14.522Z,49.92
2019-06-07T10:48:17.618Z,50.95
2019-06-07T10:53:20.349Z,50.37
2019-06-07T10:58:23.114Z,50.56
2019-06-07T11:03:25.852Z,49.33
2019-06-07T11:08:28.582Z,48.60
2019-06-07T11:13:31.484Z,48.27
2019-06-07T11:18:34.202Z,47.76
2019-06-07T11:23:37.023Z,47.74
2019-06-07T11:28:39.841Z,48.00
2019-06-07T11:33:42.573Z,47.66
2019-06-07T11:38:45.391Z,49.01
2019-06-07T11:43:48.130Z,48.77
2019-06-07T11:48:50.913Z,48.54
2019-06-07T11:53:53.700Z,49.21
2019-06-07T11:58:56.494Z,48.16
2019-06-07T12:03:59.315Z,48.69
2019-06-07T12:09:02.045Z,49.05
2019-06-07T12:14:05.336Z,49.18
2019-06-07T12:19:09.544Z,50.21
2019-06-07T12:24:12.521Z,49.80
2019-06-07T12:29:15.263Z,50.36
2019-06-07T12:34:17.984Z,50.57
2019-06-07T12:39:20.732Z,50.17
2019-06-07T12:44:23.461Z,48.98
2019-06-07T12:49:26.173Z,48.35
2019-06-07T12:54:28.915Z,47.07
2019-06-07T12:59:31.644Z,47.62
2019-06-07T13:04:34.363Z,47.50
2019-06-07T13:09:37.084Z,47.06
2019-06-07T13:14:39.809Z,47.21
2019-06-07T13:19:42.552Z,47.21
2019-06-07T13:24:45.274Z,46.71
2019-06-07T13:29:48.006Z,45.13
2019-06-07T13:34:50.759Z,44.67
2019-06-07T13:39:53.482Z,44.12
2019-06-07T13:44:56.278Z,45.69
2019-06-07T13:49:59.100Z,46.08
2019-06-07T13:55:02.475Z,45.30
2019-06-07T14:00:10.850Z,45.29
2019-06-07T14:05:13.998Z,45.75
2019-06-07T14:10:16.744Z,45.86
2019-06-07T14:15:20.525Z,47.12
2019-06-07T14:20:26.756Z,46.22
2019-06-07T14:25:29.371Z,45.15
2019-06-07T14:30:32.749Z,45.11
2019-06-07T14:35:35.571Z,46.58
2019-06-07T14:40:40.133Z,46.85
2019-06-07T14:45:42.902Z,46.04
2019-06-07T14:50:45.649Z,45.89
2019-06-07T14:55:48.374Z,45.56
2019-06-07T15:00:51.084Z,45.32
2019-06-07T15:05:53.882Z,44.88
2019-06-07T15:10:56.654Z,44.14
2019-06-07T15:15:59.367Z,43.85
2019-06-07T15:21:02.424Z,43.22
2019-06-07T15:26:05.217Z,43.28
2019-06-07T15:31:07.945Z,43.53
2019-06-07T15:36:10.667Z,44.56
2019-06-07T15:41:13.374Z,44.84
2019-06-07T15:46:16.157Z,45.33
2019-06-07T15:51:18.940Z,46.86
2019-06-07T15:56:21.656Z,45.68
2019-06-07T16:01:24.369Z,45.28
2019-06-07T16:06:27.102Z,44.12
2019-06-07T16:11:30.356Z,43.55
2019-06-07T16:16:33.096Z,43.93
2019-06-07T16:21:35.827Z,43.61
2019-06-07T16:26:38.548Z,44.36
2019-06-07T16:31:41.261Z,44.56
2019-06-07T16:36:44.508Z,45.63
2019-06-07T16:41:48.954Z,46.03
2019-06-07T16:46:51.770Z,45.72
2019-06-07T16:52:02.573Z,45.75
2019-06-07T16:57:05.305Z,46.02
2019-06-07T17:02:08.014Z,46.71
2019-06-07T17:07:10.727Z,47.43
2019-06-07T17:12:13.441Z,48.02
2019-06-07T17:17:17.081Z,47.75
2019-06-07T17:22:19.878Z,47.81
2019-06-07T17:27:22.622Z,47.66
2019-06-07T17:32:25.362Z,47.24
2019-06-07T17:37:28.160Z,46.43
2019-06-07T17:42:30.900Z,46.32
2019-06-07T17:47:33.616Z,47.02
2019-06-07T17:52:36.329Z,48.71
2019-06-07T17:57:39.061Z,49.19
2019-06-07T18:02:42.632Z,49.54
2019-06-07T18:07:50.055Z,49.34
2019-06-07T18:12:53.042Z,49.56
2019-06-07T18:17:56.958Z,50.09
2019-06-07T18:23:03.940Z,50.94
2019-06-07T18:28:07.048Z,51.50
2019-06-07T18:33:09.791Z,51.33
2019-06-07T18:38:12.503Z,51.43
2019-06-07T18:43:15.222Z,51.75
2019-06-07T18:48:17.926Z,52.09
2019-06-07T18:53:20.659Z,54.00
2019-06-07T18:58:23.398Z,54.87
2019-06-07T19:03:26.117Z,55.08
2019-06-07T19:08:28.927Z,56.03
2019-06-07T19:13:31.985Z,58.61
2019-06-07T19:18:34.710Z,64.51
2019-06-07T19:23:37.445Z,73.44
2019-06-07T19:28:40.194Z,77.86
2019-06-07T19:33:49.158Z,78.63
2019-06-07T19:38:47.567Z,77.87
2019-06-07T19:43:50.334Z,77.95
2019-06-07T19:48:54.488Z,78.83
2019-06-07T19:53:57.709Z,78.92
2019-06-07T19:59:01.704Z,79.30
2019-06-07T20:04:04.668Z,79.09
2019-06-07T20:09:07.595Z,78.65
2019-06-07T20:14:10.535Z,78.59
2019-06-07T20:19:13.303Z,79.12
2019-06-07T20:24:26.471Z,80.08
2019-06-07T20:29:25.720Z,79.79
2019-06-07T20:34:25.655Z,78.44
2019-06-07T20:39:28.633Z,77.92
2019-06-07T20:44:31.440Z,77.78
2019-06-07T20:49:34.531Z,76.45
2019-06-07T20:54:37.388Z,75.88
2019-06-07T20:59:40.372Z,74.55
2019-06-07T21:11:07.795Z,76.10
2019-06-07T21:16:10.734Z,76.16
2019-06-07T21:21:13.587Z,75.81
2019-06-07T21:26:16.463Z,76.31
2019-06-07T21:31:19.336Z,76.27
2019-06-07T21:36:22.111Z,75.55
2019-06-07T21:41:24.896Z,76.56
2019-06-07T21:46:27.763Z,76.45
2019-06-07T21:51:30.676Z,75.58
2019-06-07T21:56:33.587Z,76.53
2019-06-07T22:01:36.873Z,77.81
2019-06-07T22:06:39.902Z,76.51
2019-06-07T22:11:42.926Z,75.46
2019-06-07T22:16:46.377Z,75.56
2019-06-07T22:22:02.119Z,74.68
2019-06-07T22:26:54.509Z,75.41
2019-06-07T22:32:00.080Z,75.69
2019-06-07T22:37:23.634Z,75.79
2019-06-07T22:42:28.938Z,75.43
2019-06-07T22:47:38.032Z,74.79
2019-06-07T22:52:42.220Z,74.21
2019-06-07T22:57:58.296Z,73.93
2019-06-07T23:03:01.030Z,74.61
2019-06-07T23:08:05.346Z,74.81
2019-06-07T23:13:09.859Z,74.37
2019-06-07T23:18:13.460Z,73.64
2019-06-07T23:23:17.305Z,72.52
2019-06-07T23:34:46.094Z,72.69
2019-06-07T23:39:49.513Z,72.58
2019-06-07T23:44:52.369Z,72.18
2019-06-07T23:49:58.081Z,71.87
2019-06-07T23:55:00.896Z,71.11
